Time;durP1;ratioP1;P1;durP2;ratioP2;P2;SDS_P1;SDS_P2;PMS_P1;PMS_P2;Temp;Humidity;BMP_temperature;BMP_pressure;BME280_temperature;BME280_humidity;BME280_pressure;Samples;Min_cycle;Max_cycle;Signal;HPM_P1;HPM_P2
2023/05/30 00:01:20;;;;;;;4.60;1.17;;;11.60;99.90;;;;;;5055215;28;20045;-55
2023/05/30 00:03:47;;;;;;;4.43;1.25;;;11.60;99.90;;;;;;5054862;28;20084;-53
2023/05/30 00:06:14;;;;;;;5.90;1.45;;;11.60;99.90;;;;;;5054965;28;20473;-54
2023/05/30 00:08:43;;;;;;;5.07;1.42;;;11.60;99.90;;;;;;5055009;28;20053;-54
2023/05/30 00:11:13;;;;;;;4.40;1.20;;;11.60;99.90;;;;;;5054863;28;20088;-54
2023/05/30 00:13:43;;;;;;;5.18;1.40;;;11.60;99.90;;;;;;5054850;28;20530;-52
2023/05/30 00:16:10;;;;;;;6.57;1.40;;;11.60;99.90;;;;;;5054607;28;20132;-54
2023/05/30 00:18:39;;;;;;;4.22;1.45;;;11.60;99.90;;;;;;5055149;28;20045;-53
2023/05/30 00:21:06;;;;;;;4.22;1.38;;;11.50;99.90;;;;;;5054587;28;20499;-54
2023/05/30 00:23:32;;;;;;;5.38;1.45;;;11.60;99.90;;;;;;5054676;28;20135;-55
2023/05/30 00:25:59;;;;;;;7.65;1.20;;;11.50;99.90;;;;;;5053879;28;20045;-53
2023/05/30 00:28:25;;;;;;;;;;;11.50;99.90;;;;;;5055168;28;20041;-56
2023/05/30 00:30:52;;;;;;;4.55;1.35;;;11.50;99.90;;;;;;5053515;28;19925;-53
2023/05/30 00:33:17;;;;;;;4.82;1.27;;;11.50;99.90;;;;;;5053753;28;20048;-54
2023/05/30 00:35:43;;;;;;;4.73;1.20;;;11.50;99.90;;;;;;5054516;28;20385;-50
2023/05/30 00:38:09;;;;;;;4.80;1.20;;;11.40;99.90;;;;;;5054497;28;20427;-53
2023/05/30 00:40:34;;;;;;;3.73;1.30;;;11.50;99.90;;;;;;5054650;28;20065;-54
2023/05/30 00:43:00;;;;;;;2.60;1.03;;;11.50;99.90;;;;;;5053410;28;20132;-53
2023/05/30 00:45:26;;;;;;;3.63;1.20;;;11.40;99.90;;;;;;5054232;28;20040;-53
2023/05/30 00:47:53;;;;;;;3.57;1.00;;;11.40;99.90;;;;;;5036866;28;20089;-52
2023/05/30 00:50:19;;;;;;;4.28;1.15;;;11.40;99.90;;;;;;5053320;28;20056;-53
2023/05/30 00:52:48;;;;;;;3.08;0.90;;;11.40;99.90;;;;;;5053221;28;20059;-53
2023/05/30 00:55:15;;;;;;;4.97;1.63;;;11.40;99.90;;;;;;5054069;28;20056;-48
2023/05/30 00:57:42;;;;;;;2.60;1.17;;;11.40;99.90;;;;;;5052781;28;20191;-53
2023/05/30 01:00:13;;;;;;;5.13;1.08;;;11.30;99.90;;;;;;5052969;28;20515;-53
2023/05/30 01:02:40;;;;;;;7.30;1.30;;;11.30;99.90;;;;;;5054671;28;20071;-54
2023/05/30 01:05:06;;;;;;;7.88;1.40;;;11.40;99.90;;;;;;5053910;28;20094;-52
2023/05/30 01:07:33;;;;;;;5.25;1.17;;;11.40;99.90;;;;;;5054334;28;20041;-53
2023/05/30 01:09:59;;;;;;;4.63;1.20;;;11.30;99.90;;;;;;5054053;28;20461;-54
2023/05/30 01:12:41;;;;;;;5.10;1.70;;;11.30;99.90;;;;;;5052955;28;20123;-51
2023/05/30 01:15:18;;;;;;;5.85;1.38;;;11.30;99.90;;;;;;5053970;28;20082;-54
2023/05/30 01:18:03;;;;;;;4.47;1.25;;;11.40;99.90;;;;;;5053227;28;20103;-54
2023/05/30 01:20:36;;;;;;;5.03;1.42;;;11.30;99.90;;;;;;5053883;28;20127;-52
2023/05/30 01:23:35;;;;;;;4.80;1.40;;;11.30;99.90;;;;;;5053591;28;20049;-53
2023/05/30 01:26:33;;;;;;;5.15;1.13;;;11.30;99.90;;;;;;5052649;28;20128;-54
2023/05/30 01:29:02;;;;;;;3.05;0.95;;;11.40;99.90;;;;;;5053699;28;20056;-53
2023/05/30 01:31:29;;;;;;;5.05;1.08;;;11.40;99.90;;;;;;5053443;28;20411;-53
2023/05/30 01:33:55;;;;;;;5.55;1.40;;;11.40;99.90;;;;;;5053866;28;20088;-53
2023/05/30 01:36:21;;;;;;;3.38;1.20;;;11.40;99.90;;;;;;5053196;28;20115;-53
2023/05/30 01:38:47;;;;;;;6.90;1.50;;;11.40;99.90;;;;;;5052666;28;20463;-54
2023/05/30 01:41:36;;;;;;;4.00;1.17;;;11.40;99.90;;;;;;5053773;28;20140;-54
2023/05/30 01:44:10;;;;;;;5.43;1.10;;;11.50;99.90;;;;;;5053601;28;20131;-53
2023/05/30 01:46:45;;;;;;;4.18;1.15;;;11.50;99.90;;;;;;5053402;28;20048;-52
2023/05/30 01:49:34;;;;;;;3.25;1.20;;;11.50;99.90;;;;;;5052549;28;20053;-50
2023/05/30 01:52:04;;;;;;;4.60;1.20;;;11.50;99.90;;;;;;5052329;28;20045;-53
2023/05/30 01:54:32;;;;;;;7.03;1.52;;;11.40;99.90;;;;;;5035719;28;20059;-53
2023/05/30 01:57:06;;;;;;;3.80;1.40;;;11.50;99.90;;;;;;5053360;28;20119;-53
2023/05/30 01:59:33;;;;;;;8.13;1.65;;;11.40;99.90;;;;;;5053557;28;20088;-52
2023/05/30 02:02:01;;;;;;;4.05;1.42;;;11.40;99.90;;;;;;5053181;28;20111;-51
2023/05/30 02:04:27;;;;;;;6.32;1.40;;;11.40;99.90;;;;;;5053155;28;20582;-49
2023/05/30 02:06:53;;;;;;;6.13;2.07;;;11.50;99.90;;;;;;5053232;28;20076;-53
2023/05/30 02:09:18;;;;;;;5.20;1.80;;;11.50;99.90;;;;;;5053239;28;20484;-53
2023/05/30 02:11:44;;;;;;;4.27;1.10;;;11.50;99.90;;;;;;5053296;28;20067;-51
2023/05/30 02:14:09;;;;;;;3.83;1.33;;;11.50;99.90;;;;;;5053009;28;20053;-53
2023/05/30 02:16:35;;;;;;;4.57;1.33;;;11.50;99.90;;;;;;5053179;28;20052;-53
2023/05/30 02:19:01;;;;;;;4.80;1.90;;;11.50;99.90;;;;;;5053023;28;20055;-53
2023/05/30 02:21:26;;;;;;;4.43;1.70;;;11.50;99.90;;;;;;5052782;28;20045;-49
2023/05/30 02:23:53;;;;;;;3.80;1.30;;;11.50;99.90;;;;;;5053243;28;20484;-54
2023/05/30 02:26:19;;;;;;;4.38;1.35;;;11.50;99.90;;;;;;5053090;28;20041;-52
2023/05/30 02:28:44;;;;;;;5.53;1.30;;;11.50;99.90;;;;;;5053109;28;20370;-54
2023/05/30 02:31:10;;;;;;;4.37;1.47;;;11.40;99.90;;;;;;5053069;28;20055;-53
2023/05/30 02:33:36;;;;;;;4.17;1.57;;;11.40;99.90;;;;;;5051762;28;20094;-52
2023/05/30 02:36:02;;;;;;;7.10;1.90;;;11.50;99.90;;;;;;5035286;28;20103;-54
2023/05/30 02:38:27;;;;;;;5.23;1.50;;;11.40;99.90;;;;;;5051797;28;20127;-52
2023/05/30 02:40:53;;;;;;;5.17;1.57;;;11.40;99.90;;;;;;5053041;28;20102;-54
2023/05/30 02:43:19;;;;;;;5.80;1.40;;;11.40;99.90;;;;;;5053066;28;20048;-53
2023/05/30 02:45:45;;;;;;;2.83;1.30;;;11.40;99.90;;;;;;5052764;28;20047;-54
2023/05/30 02:48:10;;;;;;;4.50;1.50;;;11.40;99.90;;;;;;5054265;28;20041;-54
2023/05/30 02:50:36;;;;;;;5.00;1.97;;;11.40;99.90;;;;;;5056265;28;20084;-54
2023/05/30 02:53:02;;;;;;;5.83;1.50;;;11.50;99.90;;;;;;5056501;28;20137;-54
2023/05/30 02:55:27;;;;;;;6.93;1.87;;;11.40;99.90;;;;;;5055291;28;20163;-53
2023/05/30 02:57:53;;;;;;;6.80;1.53;;;11.40;99.90;;;;;;5056436;28;20052;-54
2023/05/30 03:00:20;;;;;;;5.40;1.43;;;11.50;99.90;;;;;;5056444;28;20048;-54
2023/05/30 03:02:46;;;;;;;8.05;2.28;;;11.40;99.90;;;;;;5056263;28;20124;-52
2023/05/30 03:05:12;;;;;;;3.03;1.40;;;11.40;99.90;;;;;;5056003;28;20098;-53
2023/05/30 03:07:38;;;;;;;7.70;1.73;;;11.40;99.90;;;;;;5056272;28;20044;-52
2023/05/30 03:10:04;;;;;;;6.93;1.65;;;11.40;99.90;;;;;;5056201;28;20048;-53
2023/05/30 03:12:30;;;;;;;;;;;11.40;99.90;;;;;;5056529;28;20061;-53
2023/05/30 03:14:56;;;;;;;6.00;1.92;;;11.40;99.90;;;;;;5056333;28;19944;-54
2023/05/30 03:17:21;;;;;;;7.37;1.83;;;11.40;99.90;;;;;;5055095;28;20131;-53
2023/05/30 03:19:48;;;;;;;5.55;1.33;;;11.40;99.90;;;;;;5055892;28;20482;-53
2023/05/30 03:22:14;;;;;;;6.05;1.73;;;11.40;99.90;;;;;;5055857;28;20097;-54
2023/05/30 03:24:39;;;;;;;6.68;1.88;;;11.40;99.90;;;;;;5055660;28;20444;-53
2023/05/30 03:27:07;;;;;;;7.03;1.40;;;11.50;99.90;;;;;;5054909;28;20092;-52
2023/05/30 03:29:33;;;;;;;4.97;1.80;;;11.40;99.90;;;;;;5054878;28;20068;-51
2023/05/30 03:31:59;;;;;;;4.57;1.42;;;11.50;99.90;;;;;;5055636;28;20052;-53
2023/05/30 03:34:25;;;;;;;4.47;1.30;;;11.40;99.90;;;;;;5055459;28;20503;-54
2023/05/30 03:36:52;;;;;;;4.50;1.48;;;11.50;99.90;;;;;;5054913;28;20060;-53
2023/05/30 03:39:21;;;;;;;4.22;1.25;;;11.50;99.90;;;;;;5054595;28;20053;-54
2023/05/30 03:41:47;;;;;;;3.60;1.38;;;11.40;99.90;;;;;;5055528;28;20506;-54
2023/05/30 03:44:14;;;;;;;5.65;1.40;;;11.50;99.90;;;;;;5055420;28;20041;-54
2023/05/30 03:46:39;;;;;;;3.70;1.52;;;11.50;99.90;;;;;;5055393;28;20150;-53
2023/05/30 03:49:05;;;;;;;4.90;1.40;;;11.50;99.90;;;;;;5055149;28;20508;-54
2023/05/30 03:51:32;;;;;;;4.72;1.52;;;11.50;99.90;;;;;;5055433;28;20311;-54
2023/05/30 03:53:58;;;;;;;3.53;1.30;;;11.50;99.90;;;;;;5054482;28;20040;-53
2023/05/30 03:56:25;;;;;;;7.30;1.53;;;11.50;99.90;;;;;;5055201;28;20044;-54
2023/05/30 03:58:52;;;;;;;4.55;1.30;;;11.50;99.90;;;;;;5054798;28;20055;-53
2023/05/30 04:01:18;;;;;;;4.50;1.20;;;11.50;99.90;;;;;;5055088;28;20045;-54
2023/05/30 04:03:43;;;;;;;6.72;1.30;;;11.50;99.90;;;;;;5054916;28;20045;-54
2023/05/30 04:06:10;;;;;;;5.63;1.50;;;11.50;99.90;;;;;;5055083;28;20044;-53
2023/05/30 04:08:39;;;;;;;;;;;11.50;99.90;;;;;;5054684;28;20053;-53
2023/05/30 04:11:06;;;;;;;9.10;1.58;;;11.50;99.90;;;;;;5054930;28;19921;-53
2023/05/30 04:13:32;;;;;;;6.35;1.55;;;11.50;99.90;;;;;;5054925;28;20049;-52
2023/05/30 04:16:00;;;;;;;7.43;1.50;;;11.50;99.90;;;;;;5054800;28;20041;-53
2023/05/30 04:18:26;;;;;;;5.65;1.63;;;11.50;99.90;;;;;;5054854;28;20111;-54
2023/05/30 04:20:51;;;;;;;4.15;1.30;;;11.50;99.90;;;;;;5054757;28;20041;-53
2023/05/30 04:23:17;;;;;;;3.73;1.30;;;11.50;99.90;;;;;;5054745;28;20060;-54
2023/05/30 04:25:44;;;;;;;4.68;1.50;;;11.60;99.90;;;;;;5054793;28;20041;-53
2023/05/30 04:28:16;;;;;;;;;;;11.60;99.90;;;;;;5055102;28;20048;-55
2023/05/30 04:30:48;;;;;;;5.00;1.45;;;11.60;99.90;;;;;;5054441;28;19963;-53
2023/05/30 04:33:17;;;;;;;3.97;1.20;;;11.60;99.90;;;;;;5054787;28;20055;-54
2023/05/30 04:35:47;;;;;;;4.95;1.20;;;11.60;99.90;;;;;;5054415;28;20037;-53
2023/05/30 04:38:19;;;;;;;4.38;1.20;;;11.60;99.90;;;;;;5054542;28;20408;-54
2023/05/30 04:40:50;;;;;;;5.47;1.58;;;11.60;99.90;;;;;;5054604;28;20067;-55
2023/05/30 04:43:19;;;;;;;4.82;1.50;;;11.60;99.90;;;;;;5054322;28;20098;-53
2023/05/30 04:45:49;;;;;;;4.65;1.30;;;11.60;99.90;;;;;;5054475;28;20492;-53
2023/05/30 04:48:17;;;;;;;3.65;1.35;;;11.60;99.90;;;;;;5054228;28;20048;-52
2023/05/30 04:50:46;;;;;;;4.20;1.15;;;11.60;99.90;;;;;;5053251;28;20186;-54
2023/05/30 04:53:15;;;;;;;3.95;1.10;;;11.60;99.90;;;;;;5053035;28;20526;-53
2023/05/30 04:55:44;;;;;;;4.13;1.25;;;11.60;99.90;;;;;;5054004;28;20135;-52
2023/05/30 04:58:13;;;;;;;4.00;1.23;;;11.60;99.90;;;;;;5053192;28;20561;-52
2023/05/30 05:00:39;;;;;;;5.55;1.27;;;11.60;99.90;;;;;;5053922;28;20040;-53
2023/05/30 05:03:06;;;;;;;8.20;1.10;;;11.60;99.90;;;;;;5054025;28;20048;-50
2023/05/30 05:05:33;;;;;;;4.60;1.40;;;11.60;99.90;;;;;;5053836;28;20059;-53
2023/05/30 05:07:58;;;;;;;4.38;1.20;;;11.60;99.90;;;;;;5052960;28;20088;-54
2023/05/30 05:10:24;;;;;;;6.90;1.63;;;11.60;99.90;;;;;;5053233;28;20091;-51
2023/05/30 05:12:49;;;;;;;2.30;0.90;;;11.60;99.90;;;;;;5052926;28;20102;-54
2023/05/30 05:15:15;;;;;;;3.43;1.03;;;11.70;99.90;;;;;;5054109;28;20404;-52
2023/05/30 05:17:41;;;;;;;4.37;1.10;;;11.60;99.90;;;;;;5054158;28;20049;-53
2023/05/30 05:20:07;;;;;;;2.95;1.00;;;11.60;99.90;;;;;;5053945;28;20128;-53
2023/05/30 05:22:34;;;;;;;4.43;0.90;;;11.60;99.90;;;;;;5053407;28;20514;-54
2023/05/30 05:25:00;;;;;;;3.47;1.25;;;11.70;99.90;;;;;;5052209;28;20589;-49
2023/05/30 05:27:27;;;;;;;5.00;1.02;;;11.60;99.90;;;;;;5053850;28;20052;-53
2023/05/30 05:29:53;;;;;;;8.63;1.50;;;11.70;99.90;;;;;;5053647;28;20400;-52
2023/05/30 05:32:19;;;;;;;4.50;1.02;;;11.70;99.90;;;;;;5052712;28;20047;-53
2023/05/30 05:34:45;;;;;;;2.70;0.85;;;11.70;99.90;;;;;;5053641;28;20053;-49
2023/05/30 05:37:11;;;;;;;4.30;1.30;;;11.60;99.90;;;;;;5053559;28;20043;-53
2023/05/30 05:39:36;;;;;;;3.80;1.03;;;11.70;99.90;;;;;;5053479;28;20183;-53
2023/05/30 05:42:02;;;;;;;6.17;1.30;;;11.70;99.90;;;;;;5053545;28;20049;-50
2023/05/30 05:44:29;;;;;;;2.72;0.90;;;11.70;99.90;;;;;;5053500;28;20049;-49
2023/05/30 05:46:56;;;;;;;4.47;1.10;;;11.70;99.90;;;;;;5053366;28;20041;-49
2023/05/30 05:49:21;;;;;;;2.97;1.00;;;11.70;99.90;;;;;;5053381;28;20051;-51
2023/05/30 05:51:47;;;;;;;3.03;1.00;;;11.70;99.90;;;;;;5053374;28;20470;-52
2023/05/30 05:54:13;;;;;;;3.93;1.00;;;11.70;99.90;;;;;;5053216;28;20041;-52
2023/05/30 05:56:38;;;;;;;3.50;0.90;;;11.70;99.90;;;;;;5052392;28;20041;-48
2023/05/30 05:59:04;;;;;;;4.80;1.30;;;11.70;99.90;;;;;;5053324;28;20480;-48
2023/05/30 06:01:30;;;;;;;3.00;0.80;;;11.80;99.90;;;;;;5053421;28;20049;-48
2023/05/30 06:03:55;;;;;;;2.20;0.77;;;11.80;99.90;;;;;;5053466;28;20098;-49
2023/05/30 06:06:21;;;;;;;3.37;0.70;;;11.80;99.90;;;;;;5053226;28;20048;-47
2023/05/30 06:08:47;;;;;;;4.30;1.00;;;11.80;99.90;;;;;;5052252;28;20060;-50
2023/05/30 06:11:13;;;;;;;2.87;0.67;;;11.80;99.90;;;;;;5053379;28;20049;-49
2023/05/30 06:13:39;;;;;;;;;;;11.80;99.90;;;;;;5053598;28;20053;-49
2023/05/30 06:16:05;;;;;;;5.10;1.15;;;11.80;99.90;;;;;;5053106;28;19921;-49
2023/05/30 06:18:31;;;;;;;3.63;0.87;;;11.80;99.90;;;;;;5053165;28;20045;-48
2023/05/30 06:20:57;;;;;;;2.93;0.80;;;11.80;99.90;;;;;;5052956;28;20290;-49
2023/05/30 06:23:22;;;;;;;3.10;0.90;;;11.80;99.90;;;;;;5055050;28;20057;-48
2023/05/30 06:25:48;;;;;;;4.47;0.93;;;11.80;99.90;;;;;;5056899;28;20049;-47
2023/05/30 06:28:14;;;;;;;2.77;0.70;;;11.90;99.90;;;;;;5056964;28;20126;-49
2023/05/30 06:30:40;;;;;;;3.93;0.97;;;11.80;99.90;;;;;;5056985;28;20056;-49
2023/05/30 06:33:05;;;;;;;2.40;0.60;;;11.90;99.90;;;;;;5056804;28;20041;-49
2023/05/30 06:35:31;;;;;;;3.10;0.70;;;11.90;99.90;;;;;;5055533;28;20072;-48
2023/05/30 06:37:57;;;;;;;1.67;0.63;;;11.90;99.90;;;;;;5055631;28;20048;-49
2023/05/30 06:40:22;;;;;;;2.37;0.80;;;11.90;99.90;;;;;;5056761;28;20107;-49
2023/05/30 06:42:48;;;;;;;3.40;0.80;;;11.90;99.90;;;;;;5055490;28;20041;-50
2023/05/30 06:45:14;;;;;;;3.10;1.17;;;12.00;99.90;;;;;;5056498;28;20045;-48
2023/05/30 06:47:40;;;;;;;2.45;0.82;;;12.00;99.90;;;;;;5055592;28;20059;-49
2023/05/30 06:50:09;;;;;;;2.28;0.98;;;12.00;99.90;;;;;;5055425;28;20049;-50
2023/05/30 06:52:34;;;;;;;3.33;0.70;;;12.00;99.90;;;;;;5056285;28;20049;-48
2023/05/30 06:55:00;;;;;;;5.17;1.00;;;12.00;99.90;;;;;;5056222;28;20044;-50
2023/05/30 06:57:26;;;;;;;2.70;0.60;;;12.00;99.90;;;;;;5055591;28;20045;-48
2023/05/30 06:59:51;;;;;;;2.60;0.70;;;12.10;99.90;;;;;;5056354;28;20515;-49
2023/05/30 07:02:17;;;;;;;2.57;0.87;;;12.00;99.90;;;;;;5056203;28;20037;-50
2023/05/30 07:04:43;;;;;;;2.73;0.87;;;12.10;99.90;;;;;;5056115;28;20187;-49
2023/05/30 07:07:09;;;;;;;4.30;1.77;;;12.10;99.90;;;;;;5056089;28;20040;-49
2023/05/30 07:09:35;;;;;;;;;;;12.10;99.90;;;;;;5056635;28;20052;-50
2023/05/30 07:12:02;;;;;;;3.65;0.90;;;12.10;99.90;;;;;;5055099;28;19927;-49
2023/05/30 07:14:27;;;;;;;2.70;0.82;;;12.10;99.90;;;;;;5056265;28;20052;-49
2023/05/30 07:16:53;;;;;;;5.60;0.90;;;12.10;99.90;;;;;;5056046;28;20431;-49
2023/05/30 07:19:19;;;;;;;2.50;0.77;;;12.10;99.90;;;;;;5055997;28;20091;-50
2023/05/30 07:21:44;;;;;;;2.43;0.80;;;12.10;99.90;;;;;;5055426;28;20044;-49
2023/05/30 07:24:10;;;;;;;2.80;1.23;;;12.00;99.90;;;;;;5056457;28;20087;-49
2023/05/30 07:26:36;;;;;;;2.63;0.70;;;12.00;99.90;;;;;;5055997;28;20110;-48
2023/05/30 07:29:02;;;;;;;2.50;0.73;;;12.00;99.90;;;;;;5055831;28;20099;-48
2023/05/30 07:31:28;;;;;;;3.35;1.45;;;12.00;99.90;;;;;;5054863;28;20296;-49
2023/05/30 07:33:53;;;;;;;1.80;0.60;;;12.00;99.90;;;;;;5054994;28;20045;-49
2023/05/30 07:36:19;;;;;;;3.60;0.80;;;12.00;99.90;;;;;;5055589;28;20128;-49
2023/05/30 07:38:45;;;;;;;1.63;0.73;;;12.00;99.90;;;;;;5055688;28;20101;-50
2023/05/30 07:41:10;;;;;;;2.33;0.80;;;12.00;99.90;;;;;;5055710;28;20045;-48
2023/05/30 07:43:36;;;;;;;2.00;0.70;;;12.00;99.90;;;;;;5055618;28;20052;-52
2023/05/30 07:46:02;;;;;;;2.33;0.80;;;12.00;99.90;;;;;;5055494;28;20045;-49
2023/05/30 07:48:28;;;;;;;2.00;0.68;;;12.00;99.90;;;;;;5055393;28;20194;-51
2023/05/30 07:50:53;;;;;;;1.57;0.63;;;12.00;99.90;;;;;;5055291;28;20159;-51
2023/05/30 07:53:19;;;;;;;1.93;0.60;;;12.00;99.90;;;;;;5055410;28;20392;-49
2023/05/30 07:55:46;;;;;;;1.83;0.67;;;12.00;99.90;;;;;;5055361;28;20045;-51
2023/05/30 07:58:11;;;;;;;;;;;12.00;99.90;;;;;;5055887;28;20146;-50
2023/05/30 08:00:37;;;;;;;4.38;0.70;;;12.00;99.90;;;;;;5053991;28;19963;-52
2023/05/30 08:03:03;;;;;;;2.60;0.70;;;12.10;99.90;;;;;;5055099;28;20045;-52
2023/05/30 08:05:28;;;;;;;1.40;0.50;;;12.10;99.90;;;;;;5054857;28;20426;-52
2023/05/30 08:07:54;;;;;;;1.47;0.60;;;12.20;99.90;;;;;;5055128;28;20053;-48
2023/05/30 08:10:20;;;;;;;2.30;0.50;;;12.20;99.90;;;;;;5055122;28;20535;-49
2023/05/30 08:12:46;;;;;;;1.83;0.60;;;12.30;99.90;;;;;;5054991;28;20084;-49
2023/05/30 08:15:12;;;;;;;3.05;0.65;;;12.30;99.90;;;;;;5037479;28;20321;-52
2023/05/30 08:17:41;;;;;;;3.22;0.50;;;12.30;99.90;;;;;;5054733;28;20045;-48
2023/05/30 08:20:08;;;;;;;0.90;0.30;;;12.30;99.90;;;;;;5054547;28;20044;-50
2023/05/30 08:22:34;;;;;;;0.90;0.30;;;12.40;99.90;;;;;;5054697;28;20128;-50
2023/05/30 08:25:00;;;;;;;1.23;0.57;;;12.30;99.90;;;;;;5054738;28;20576;-50
2023/05/30 08:27:26;;;;;;;1.33;0.50;;;12.30;99.90;;;;;;5020348;28;20412;-49
2023/05/30 08:29:52;;;;;;;;;;;12.30;99.90;;;;;;5054989;28;20488;-49
2023/05/30 08:32:18;;;;;;;0.98;0.30;;;12.20;99.90;;;;;;5054708;28;19975;-48
2023/05/30 08:34:45;;;;;;;1.33;0.32;;;12.20;99.90;;;;;;5054553;28;20052;-49
2023/05/30 08:37:11;;;;;;;0.75;0.20;;;12.20;99.90;;;;;;5054297;28;20480;-49
2023/05/30 08:39:37;;;;;;;3.67;0.50;;;12.30;99.90;;;;;;5054953;28;20070;-50
2023/05/30 08:42:04;;;;;;;1.40;0.40;;;12.40;99.90;;;;;;5053824;28;20400;-48
2023/05/30 08:44:30;;;;;;;1.60;0.40;;;12.50;99.90;;;;;;5054205;28;20088;-49
2023/05/30 08:46:59;;;;;;;1.25;0.30;;;12.60;99.90;;;;;;5053584;28;20452;-51
2023/05/30 08:49:27;;;;;;;1.23;0.30;;;12.70;99.90;;;;;;5054069;28;20049;-53
2023/05/30 08:51:54;;;;;;;1.08;0.40;;;12.80;99.90;;;;;;5054267;28;20496;-48
2023/05/30 08:54:30;;;;;;;0.85;0.22;;;12.90;99.90;;;;;;5054259;28;20545;-47
2023/05/30 08:57:07;;;;;;;1.83;0.30;;;13.00;99.90;;;;;;5054300;28;20067;-49
2023/05/30 08:59:33;;;;;;;0.30;0.20;;;13.10;99.90;;;;;;5054287;28;20403;-49
2023/05/30 09:02:00;;;;;;;0.70;0.20;;;13.20;99.90;;;;;;5053811;28;20055;-49
2023/05/30 09:04:26;;;;;;;;;;;13.30;99.90;;;;;;5054456;28;20508;-53
2023/05/30 09:06:54;;;;;;;0.88;0.20;;;13.30;99.90;;;;;;5053834;28;19925;-50
2023/05/30 09:09:22;;;;;;;1.65;0.25;;;13.30;99.90;;;;;;5054049;28;20123;-51
2023/05/30 09:11:50;;;;;;;0.50;0.30;;;13.30;99.90;;;;;;5053858;28;20055;-51
2023/05/30 09:14:15;;;;;;;1.10;0.30;;;13.30;99.90;;;;;;5053721;28;20076;-49
2023/05/30 09:16:41;;;;;;;0.40;0.20;;;13.30;99.90;;;;;;5053570;28;20080;-52
2023/05/30 09:19:07;;;;;;;0.83;0.30;;;13.30;99.90;;;;;;5052652;28;20055;-52
2023/05/30 09:21:34;;;;;;;0.60;0.30;;;13.30;99.90;;;;;;5053659;28;20052;-50
2023/05/30 09:24:04;;;;;;;2.05;0.30;;;13.40;99.90;;;;;;5053741;28;20105;-47
2023/05/30 09:26:30;;;;;;;1.10;0.40;;;13.40;99.90;;;;;;5053567;28;20045;-51
2023/05/30 09:29:01;;;;;;;1.48;0.40;;;13.30;99.90;;;;;;5053568;28;20048;-50
2023/05/30 09:31:26;;;;;;;0.70;0.30;;;13.30;99.90;;;;;;5052844;28;20102;-52
2023/05/30 09:33:53;;;;;;;0.88;0.38;;;13.20;99.90;;;;;;5053777;28;20048;-50
2023/05/30 09:36:20;;;;;;;;;;;13.10;99.90;;;;;;5053978;28;20162;-51
2023/05/30 09:39:01;;;;;;;0.65;0.28;;;13.00;99.90;;;;;;5053430;28;20281;-54
2023/05/30 09:41:28;;;;;;;0.50;0.22;;;12.90;99.90;;;;;;5053366;28;20373;-53
2023/05/30 09:43:55;;;;;;;1.65;0.25;;;12.90;99.90;;;;;;5052595;28;20053;-54
2023/05/30 09:46:29;;;;;;;0.85;0.22;;;12.90;99.90;;;;;;5053360;28;20492;-53
2023/05/30 09:48:55;;;;;;;1.45;0.60;;;12.80;99.90;;;;;;5053403;28;20126;-48
2023/05/30 09:51:22;;;;;;;0.47;0.20;;;12.80;99.90;;;;;;5053415;28;20179;-48
2023/05/30 09:53:55;;;;;;;1.42;0.60;;;12.80;99.90;;;;;;5053307;28;20044;-48
2023/05/30 09:56:38;;;;;;;0.98;0.38;;;12.90;99.90;;;;;;5053629;28;20052;-47
2023/05/30 09:59:09;;;;;;;1.17;0.40;;;13.00;99.90;;;;;;5057485;28;20045;-48
2023/05/30 10:01:41;;;;;;;1.70;0.20;;;13.00;99.90;;;;;;5057566;28;20049;-49
2023/05/30 10:04:12;;;;;;;1.27;0.15;;;13.00;99.90;;;;;;5057423;28;20480;-48
2023/05/30 10:06:41;;;;;;;0.28;0.17;;;13.10;99.90;;;;;;5057122;28;20132;-49
2023/05/30 10:09:09;;;;;;;0.70;0.20;;;13.10;99.90;;;;;;5039715;28;20079;-48
2023/05/30 10:11:37;;;;;;;1.60;0.30;;;13.10;99.90;;;;;;5057263;28;20132;-48
2023/05/30 10:14:02;;;;;;;0.40;0.15;;;13.10;99.90;;;;;;5056326;28;20045;-48
2023/05/30 10:16:32;;;;;;;0.70;0.30;;;13.20;99.90;;;;;;5056974;28;20044;-48
2023/05/30 10:19:01;;;;;;;0.65;0.10;;;13.30;99.90;;;;;;5056091;28;20124;-49
2023/05/30 10:21:32;;;;;;;0.60;0.30;;;13.30;99.90;;;;;;5056895;28;20088;-46
2023/05/30 10:24:02;;;;;;;0.50;0.28;;;13.50;99.90;;;;;;5057327;28;20064;-50
2023/05/30 10:26:35;;;;;;;0.70;0.30;;;13.50;99.90;;;;;;5056996;28;20045;-48
2023/05/30 10:29:08;;;;;;;1.02;0.40;;;13.50;99.90;;;;;;5056908;28;20110;-48
2023/05/30 10:31:35;;;;;;;0.75;0.30;;;13.50;99.90;;;;;;5056731;28;20403;-48
2023/05/30 10:34:01;;;;;;;;;;;13.50;99.90;;;;;;5057650;28;20186;-49
2023/05/30 10:36:28;;;;;;;1.10;0.45;;;13.50;99.90;;;;;;5056991;28;19987;-48
2023/05/30 10:39:29;;;;;;;0.52;0.20;;;13.50;99.90;;;;;;5056808;28;20178;-48
2023/05/30 10:42:07;;;;;;;0.57;0.30;;;13.50;99.90;;;;;;5037150;28;20055;-50
2023/05/30 10:44:55;;;;;;;0.55;0.30;;;13.50;99.90;;;;;;5056761;28;20056;-50
2023/05/30 10:47:39;;;;;;;;;;;13.50;99.90;;;;;;5057243;28;20045;-51
2023/05/30 10:50:16;;;;;;;1.60;0.40;;;13.50;99.90;;;;;;5055446;28;19925;-49
2023/05/30 10:52:43;;;;;;;1.00;0.47;;;13.50;99.90;;;;;;5056904;28;20111;-53
2023/05/30 10:55:10;;;;;;;0.40;0.20;;;13.60;99.90;;;;;;5056544;28;20374;-49
2023/05/30 10:57:36;;;;;;;1.05;0.40;;;13.60;99.90;;;;;;5056520;28;20424;-53
2023/05/30 11:00:18;;;;;;;1.05;0.32;;;13.60;99.90;;;;;;5056514;28;20045;-48
2023/05/30 11:02:53;;;;;;;0.68;0.40;;;13.60;99.90;;;;;;5056164;28;20143;-48
2023/05/30 11:05:32;;;;;;;0.80;0.30;;;13.60;99.90;;;;;;5056356;28;20484;-47
2023/05/30 11:08:00;;;;;;;1.23;0.43;;;13.70;99.90;;;;;;5055665;28;20047;-52
2023/05/30 11:10:28;;;;;;;0.85;0.55;;;13.60;99.90;;;;;;5055938;28;20080;-51
2023/05/30 11:13:07;;;;;;;2.47;0.40;;;13.60;99.90;;;;;;5055958;28;20546;-53
2023/05/30 11:15:34;;;;;;;1.25;0.40;;;13.60;99.90;;;;;;5056402;28;20048;-47
2023/05/30 11:18:00;;;;;;;0.75;0.40;;;13.60;99.90;;;;;;5056095;28;20063;-48
2023/05/30 11:20:26;;;;;;;0.73;0.35;;;13.60;99.90;;;;;;5056006;28;20045;-48
2023/05/30 11:23:01;;;;;;;;;;;13.70;99.90;;;;;;5056037;28;20052;-48
2023/05/30 11:25:32;;;;;;;0.57;0.25;;;13.70;99.90;;;;;;5055717;28;19920;-47
2023/05/30 11:28:04;;;;;;;1.05;0.40;;;13.70;99.90;;;;;;5055754;28;20080;-49
2023/05/30 11:30:35;;;;;;;1.25;0.50;;;13.70;99.90;;;;;;5054865;28;20079;-47
2023/05/30 11:33:01;;;;;;;1.90;0.50;;;13.70;99.90;;;;;;5055643;28;20500;-48
2023/05/30 11:35:27;;;;;;;1.00;0.30;;;13.80;99.90;;;;;;5054715;28;20053;-48
2023/05/30 11:37:54;;;;;;;1.27;0.35;;;13.80;99.90;;;;;;5055534;28;20055;-48
2023/05/30 11:40:23;;;;;;;1.33;0.50;;;13.80;99.90;;;;;;5054377;28;20049;-49
2023/05/30 11:42:53;;;;;;;1.17;0.47;;;13.90;99.90;;;;;;5055648;28;20049;-51
2023/05/30 11:45:26;;;;;;;1.10;0.40;;;13.90;99.90;;;;;;5055542;28;20036;-48
2023/05/30 11:47:52;;;;;;;1.02;0.30;;;13.90;99.90;;;;;;5054499;28;20506;-48
2023/05/30 11:50:19;;;;;;;1.13;0.30;;;13.90;99.90;;;;;;5055268;28;20040;-49
2023/05/30 11:52:45;;;;;;;1.15;0.50;;;13.90;99.90;;;;;;5055162;28;20511;-49
2023/05/30 11:55:11;;;;;;;1.35;0.28;;;13.80;99.90;;;;;;5055341;28;20049;-48
2023/05/30 11:57:37;;;;;;;1.00;0.27;;;13.80;99.90;;;;;;5055352;28;20076;-51
2023/05/30 12:00:08;;;;;;;1.35;0.50;;;13.80;99.90;;;;;;5055523;28;20095;-48
2023/05/30 12:02:33;;;;;;;0.63;0.22;;;13.80;99.90;;;;;;5055170;28;20465;-50
2023/05/30 12:05:02;;;;;;;2.07;0.40;;;13.70;99.90;;;;;;5055224;28;20080;-48
2023/05/30 12:07:28;;;;;;;0.80;0.28;;;13.80;99.90;;;;;;5054989;28;20087;-48
2023/05/30 12:09:54;;;;;;;0.60;0.30;;;13.80;99.90;;;;;;5055065;28;20041;-47
2023/05/30 12:12:19;;;;;;;1.38;0.40;;;13.90;99.90;;;;;;5054019;28;20123;-47
2023/05/30 12:14:45;;;;;;;1.02;0.38;;;14.00;99.90;;;;;;5054853;28;20041;-48
2023/05/30 12:17:20;;;;;;;1.17;0.30;;;14.10;99.90;;;;;;5054819;28;20057;-48
2023/05/30 12:19:46;;;;;;;1.40;0.50;;;14.10;99.90;;;;;;5054559;28;20041;-52
2023/05/30 12:22:15;;;;;;;0.88;0.30;;;14.10;99.90;;;;;;5054530;28;20057;-53
2023/05/30 12:24:42;;;;;;;1.98;0.40;;;14.10;99.90;;;;;;5054862;28;20118;-52
2023/05/30 12:27:19;;;;;;;1.15;0.55;;;14.20;99.90;;;;;;5054768;28;20076;-53
2023/05/30 12:29:45;;;;;;;1.52;0.40;;;14.20;99.90;;;;;;5054764;28;20059;-51
2023/05/30 12:32:11;;;;;;;1.02;0.50;;;14.20;99.90;;;;;;5054665;28;20057;-49
2023/05/30 12:34:37;;;;;;;0.60;0.30;;;14.30;99.90;;;;;;5053407;28;20385;-47
2023/05/30 12:37:06;;;;;;;1.98;0.50;;;14.30;99.90;;;;;;5054869;28;20052;-49
2023/05/30 12:39:32;;;;;;;1.42;0.60;;;14.30;99.90;;;;;;5054283;28;20480;-47
2023/05/30 12:41:58;;;;;;;0.93;0.40;;;14.30;99.90;;;;;;5054385;28;20055;-48
2023/05/30 12:44:24;;;;;;;0.80;0.30;;;14.30;99.90;;;;;;5054426;28;20373;-48
2023/05/30 12:46:50;;;;;;;0.75;0.40;;;14.30;99.90;;;;;;5054295;28;20037;-48
2023/05/30 12:49:16;;;;;;;1.60;0.53;;;14.20;99.90;;;;;;5053167;28;20045;-49
2023/05/30 12:51:42;;;;;;;1.23;0.50;;;14.20;99.90;;;;;;5054343;28;20048;-49
2023/05/30 12:54:10;;;;;;;2.30;0.40;;;14.10;99.90;;;;;;5054255;28;20045;-47